Time;durP1;ratioP1;P1;durP2;ratioP2;P2;SDS_P1;SDS_P2;PMS_P1;PMS_P2;Temp;Humidity;BMP_temperature;BMP_pressure;BME280_temperature;BME280_humidity;BME280_pressure;Samples;Min_cycle;Max_cycle;Signal;HPM_P1;HPM_P2
2021/04/26 00:01:42;;;;;;;7.60;3.97;;;10.20;36.30;;;;;;5138538;27;20066;-67
2021/04/26 00:04:08;;;;;;;9.70;3.83;;;10.20;36.20;;;;;;5156019;27;20031;-67
2021/04/26 00:06:34;;;;;;;16.05;4.60;;;10.30;36.10;;;;;;5156095;27;20061;-67
2021/04/26 00:08:59;;;;;;;8.02;4.03;;;10.30;36.10;;;;;;5154209;27;20471;-67
2021/04/26 00:11:25;;;;;;;8.15;4.28;;;10.30;35.90;;;;;;5147366;27;20068;-67
2021/04/26 00:13:51;;;;;;;7.22;3.35;;;10.40;36.00;;;;;;5135209;27;20055;-67
2021/04/26 00:16:17;;;;;;;7.72;4.13;;;10.40;35.80;;;;;;5135169;27;20027;-67
2021/04/26 00:18:43;;;;;;;8.00;3.70;;;10.40;35.80;;;;;;5135104;27;20034;-67
2021/04/26 00:21:09;;;;;;;7.43;4.10;;;10.40;35.70;;;;;;5134948;27;20023;-67
2021/04/26 00:23:36;;;;;;;9.63;4.00;;;10.40;35.60;;;;;;5135019;27;20015;-67
2021/04/26 00:26:02;;;;;;;7.15;3.75;;;10.40;35.60;;;;;;5134969;27;20018;-67
2021/04/26 00:28:28;;;;;;;12.00;3.97;;;10.50;35.60;;;;;;5134879;27;20484;-67
2021/04/26 00:30:54;;;;;;;6.53;3.75;;;10.40;35.60;;;;;;5134841;27;20015;-67
2021/04/26 00:33:20;;;;;;;6.18;3.33;;;10.40;35.60;;;;;;5134288;27;20015;-67
2021/04/26 00:35:45;;;;;;;10.30;3.47;;;10.50;35.60;;;;;;5134748;27;20051;-67
2021/04/26 00:38:11;;;;;;;10.02;3.92;;;10.40;35.70;;;;;;5134696;27;20090;-67
2021/04/26 00:40:39;;;;;;;8.25;3.80;;;10.40;35.60;;;;;;5121723;27;20036;-67
2021/04/26 00:43:05;;;;;;;6.72;3.25;;;10.40;35.60;;;;;;5130311;27;20027;-67
2021/04/26 00:45:30;;;;;;;6.38;3.85;;;10.40;35.50;;;;;;5133277;27;20019;-67
2021/04/26 00:47:56;;;;;;;6.30;3.15;;;10.40;35.60;;;;;;5129203;27;20052;-67
2021/04/26 00:50:31;;;;;;;6.60;3.15;;;10.40;35.50;;;;;;5113936;28;20405;-67
2021/04/26 00:52:59;;;;;;;9.25;3.88;;;10.40;35.50;;;;;;5113676;28;20054;-67
2021/04/26 00:55:29;;;;;;;5.78;2.85;;;10.40;35.70;;;;;;5129195;27;20459;-67
2021/04/26 00:57:55;;;;;;;7.97;3.90;;;10.40;35.70;;;;;;5113832;28;20385;-67
2021/04/26 01:00:22;;;;;;;7.18;3.60;;;10.40;36.10;;;;;;5113218;28;20027;-67
2021/04/26 01:02:48;;;;;;;6.70;3.78;;;10.40;36.00;;;;;;5113411;28;20035;-67
2021/04/26 01:05:18;;;;;;;9.95;3.72;;;10.40;35.80;;;;;;5134068;27;20416;-67
2021/04/26 01:07:45;;;;;;;9.27;3.63;;;10.40;35.80;;;;;;5134034;27;20022;-67
2021/04/26 01:10:13;;;;;;;8.75;3.55;;;10.30;36.10;;;;;;5133299;27;20027;-67
2021/04/26 01:13:07;;;;;;;8.80;4.10;;;10.30;36.40;;;;;;5133642;27;20037;-67
2021/04/26 01:15:45;;;;;;;8.88;4.40;;;10.30;36.70;;;;;;5154612;27;20075;-68
2021/04/26 01:18:36;;;;;;;6.88;3.47;;;10.30;36.80;;;;;;5153400;27;20026;-67
2021/04/26 01:21:19;;;;;;;8.63;4.35;;;10.30;36.90;;;;;;5153277;27;20031;-68
2021/04/26 01:24:06;;;;;;;7.40;3.65;;;10.30;37.70;;;;;;5154665;27;20361;-67
2021/04/26 01:26:59;;;;;;;12.45;4.13;;;10.30;37.20;;;;;;5154584;27;20098;-67
2021/04/26 01:29:40;;;;;;;6.20;3.40;;;10.30;37.30;;;;;;5134119;27;20031;-67
2021/04/26 01:32:15;;;;;;;8.57;4.00;;;10.30;37.40;;;;;;5154362;27;20096;-67
2021/04/26 01:34:42;;;;;;;10.10;4.80;;;10.30;37.40;;;;;;5137849;27;20422;-67
2021/04/26 01:37:09;;;;;;;7.75;3.70;;;10.30;37.50;;;;;;5134579;27;20019;-67
2021/04/26 01:39:37;;;;;;;7.70;3.83;;;10.30;37.50;;;;;;5128411;27;20054;-67
2021/04/26 01:42:04;;;;;;;6.70;3.70;;;10.30;37.50;;;;;;5119802;27;20092;-67
2021/04/26 01:44:31;;;;;;;6.40;3.58;;;10.30;37.50;;;;;;5133443;27;20460;-67
2021/04/26 01:46:57;;;;;;;12.90;4.00;;;10.30;37.50;;;;;;5133326;27;20076;-67
2021/04/26 01:49:24;;;;;;;6.72;3.55;;;10.40;37.50;;;;;;5133343;27;20030;-67
2021/04/26 01:51:50;;;;;;;10.23;4.38;;;10.40;37.50;;;;;;5133197;27;20051;-67
2021/04/26 01:54:16;;;;;;;8.65;3.80;;;10.30;37.50;;;;;;5133293;27;20030;-68
2021/04/26 01:56:42;;;;;;;9.70;3.42;;;10.40;37.50;;;;;;5133294;27;20066;-67
2021/04/26 01:59:09;;;;;;;5.85;3.03;;;10.40;37.50;;;;;;5133196;27;20027;-67
2021/04/26 02:01:36;;;;;;;6.75;3.67;;;10.40;37.40;;;;;;5133226;27;20031;-67
2021/04/26 02:04:04;;;;;;;6.55;3.25;;;10.40;37.40;;;;;;5132962;27;20027;-67
2021/04/26 02:06:31;;;;;;;5.50;3.25;;;10.40;37.50;;;;;;5133385;27;20068;-67
2021/04/26 02:08:59;;;;;;;7.35;3.30;;;10.30;37.40;;;;;;5133045;27;20023;-67
2021/04/26 02:11:25;;;;;;;6.65;3.70;;;10.40;37.50;;;;;;5133032;27;20472;-67
2021/04/26 02:13:54;;;;;;;8.05;3.50;;;10.30;37.50;;;;;;5133061;27;20031;-67
2021/04/26 02:16:20;;;;;;;10.27;3.47;;;10.30;37.50;;;;;;5133076;27;20392;-67
2021/04/26 02:18:46;;;;;;;6.80;3.35;;;10.30;37.60;;;;;;5132986;27;20096;-67
2021/04/26 02:21:12;;;;;;;8.50;3.47;;;10.30;37.50;;;;;;5132922;27;20539;-68
2021/04/26 02:23:38;;;;;;;7.07;3.20;;;10.30;37.60;;;;;;5135736;27;20117;-67
2021/04/26 02:26:04;;;;;;;9.05;3.30;;;10.30;37.60;;;;;;5137242;27;20372;-67
2021/04/26 02:28:30;;;;;;;9.25;4.05;;;10.30;37.60;;;;;;5137187;27;20026;-67
2021/04/26 02:30:58;;;;;;;19.40;3.50;;;10.30;37.70;;;;;;5137229;27;20030;-67
2021/04/26 02:33:31;;;;;;;5.70;2.83;;;10.20;37.80;;;;;;5136699;27;20068;-67
2021/04/26 02:36:12;;;;;;;6.80;3.80;;;10.20;37.90;;;;;;5137004;27;20383;-67
2021/04/26 02:38:42;;;;;;;10.82;3.60;;;10.20;38.00;;;;;;5137214;27;20016;-68
2021/04/26 02:41:13;;;;;;;8.73;4.07;;;10.30;37.90;;;;;;5118600;27;20030;-67
2021/04/26 02:43:42;;;;;;;7.93;3.17;;;10.20;38.60;;;;;;5136285;27;20027;-67
2021/04/26 02:46:08;;;;;;;10.18;3.30;;;10.20;38.60;;;;;;5136539;27;20426;-68
2021/04/26 02:48:37;;;;;;;6.85;3.55;;;10.20;38.00;;;;;;5136928;27;20102;-67
2021/04/26 02:51:04;;;;;;;7.47;3.13;;;10.20;38.10;;;;;;5136564;27;20089;-67
2021/04/26 02:53:33;;;;;;;7.93;3.15;;;10.20;38.00;;;;;;5136713;27;20026;-67
2021/04/26 02:56:10;;;;;;;8.00;3.30;;;10.20;38.20;;;;;;5136673;27;20026;-67
2021/04/26 02:58:37;;;;;;;7.20;3.63;;;10.10;38.20;;;;;;5136650;27;20075;-67
2021/04/26 03:01:08;;;;;;;11.32;3.47;;;10.10;38.10;;;;;;5136586;27;20029;-67
2021/04/26 03:03:36;;;;;;;7.78;3.53;;;10.10;38.20;;;;;;5136262;27;20031;-67
2021/04/26 03:06:03;;;;;;;5.70;2.70;;;10.10;38.20;;;;;;5135170;27;20381;-67
2021/04/26 03:08:33;;;;;;;6.10;2.72;;;10.10;38.20;;;;;;5136432;27;20325;-67
2021/04/26 03:11:00;;;;;;;8.15;3.10;;;10.10;38.10;;;;;;5136144;27;20031;-67
2021/04/26 03:13:27;;;;;;;9.20;3.35;;;10.10;38.00;;;;;;5136239;27;20487;-67
2021/04/26 03:15:54;;;;;;;5.97;3.35;;;10.10;38.20;;;;;;5136452;27;20384;-67
2021/04/26 03:18:20;;;;;;;6.72;3.00;;;10.00;38.00;;;;;;5136091;27;20026;-67
2021/04/26 03:20:47;;;;;;;12.38;3.92;;;10.00;38.00;;;;;;5157214;27;20026;-68
2021/04/26 03:23:25;;;;;;;7.75;3.40;;;10.00;38.10;;;;;;5156329;27;20554;-67
2021/04/26 03:25:55;;;;;;;4.68;2.92;;;10.00;38.20;;;;;;5157873;27;20110;-67
2021/04/26 03:28:22;;;;;;;7.75;3.00;;;9.90;38.10;;;;;;5157425;27;20021;-67
2021/04/26 03:30:49;;;;;;;12.77;3.42;;;9.90;38.00;;;;;;5156884;27;20078;-68
2021/04/26 03:33:15;;;;;;;9.15;3.20;;;9.90;38.10;;;;;;5153762;27;20022;-67
2021/04/26 03:35:42;;;;;;;13.85;3.65;;;9.90;38.10;;;;;;5136325;27;20098;-67
2021/04/26 03:38:10;;;;;;;11.52;3.75;;;9.80;38.30;;;;;;5136660;27;20019;-67
2021/04/26 03:40:37;;;;;;;8.25;3.90;;;9.80;38.40;;;;;;5136475;27;20020;-67
2021/04/26 03:43:03;;;;;;;16.92;4.25;;;9.80;38.40;;;;;;5129125;27;20026;-66
2021/04/26 03:45:29;;;;;;;35.88;4.32;;;9.70;38.60;;;;;;5151901;27;20026;-66
2021/04/26 03:47:56;;;;;;;8.63;3.80;;;9.70;38.50;;;;;;5157256;27;20101;-66
2021/04/26 03:50:24;;;;;;;5.68;3.10;;;9.70;38.60;;;;;;5157064;27;20097;-67
2021/04/26 03:52:50;;;;;;;8.10;3.33;;;9.60;38.60;;;;;;5156937;27;20094;-66
2021/04/26 03:55:18;;;;;;;7.15;3.17;;;9.60;38.60;;;;;;5156957;27;20050;-68
2021/04/26 03:57:44;;;;;;;12.77;3.55;;;9.60;38.70;;;;;;5155222;27;20054;-66
2021/04/26 04:00:11;;;;;;;7.75;3.50;;;9.60;38.70;;;;;;5156924;27;20061;-66
2021/04/26 04:02:38;;;;;;;6.72;3.15;;;9.60;38.80;;;;;;5156702;27;20045;-66
2021/04/26 04:05:06;;;;;;;6.88;3.38;;;9.60;38.90;;;;;;5139118;27;20023;-66
2021/04/26 04:07:32;;;;;;;7.43;3.15;;;9.60;39.10;;;;;;5136147;27;20023;-66
2021/04/26 04:09:58;;;;;;;8.20;3.03;;;9.60;39.30;;;;;;5136059;27;20026;-66
2021/04/26 04:12:24;;;;;;;12.85;3.67;;;9.60;39.30;;;;;;5153097;27;20026;-66
2021/04/26 04:14:49;;;;;;;13.27;3.80;;;9.60;39.20;;;;;;5156788;27;20151;-67
2021/04/26 04:17:15;;;;;;;4.95;2.85;;;9.60;39.10;;;;;;5156703;27;20044;-66
2021/04/26 04:19:42;;;;;;;19.98;3.83;;;9.60;39.20;;;;;;5155241;27;20023;-66
2021/04/26 04:22:08;;;;;;;14.40;3.72;;;9.60;39.30;;;;;;5156503;27;20476;-68
2021/04/26 04:24:34;;;;;;;10.70;3.75;;;9.60;39.40;;;;;;5156497;27;20018;-66
2021/04/26 04:27:00;;;;;;;8.98;3.00;;;9.60;39.30;;;;;;5156354;27;20026;-66
2021/04/26 04:29:26;;;;;;;5.30;2.80;;;9.50;39.20;;;;;;5154940;27;20072;-66
2021/04/26 04:31:51;;;;;;;9.02;3.40;;;9.60;39.30;;;;;;5145672;27;20027;-68
2021/04/26 04:34:17;;;;;;;4.43;2.30;;;9.50;39.30;;;;;;5135161;27;20031;-67
2021/04/26 04:36:43;;;;;;;10.27;3.33;;;9.60;39.30;;;;;;5135439;27;20042;-66
2021/04/26 04:39:09;;;;;;;8.70;2.60;;;9.50;39.30;;;;;;5135368;27;20034;-67
2021/04/26 04:41:35;;;;;;;8.35;3.42;;;9.60;39.20;;;;;;5129705;27;20054;-67
2021/04/26 04:44:00;;;;;;;3.67;1.90;;;9.50;39.20;;;;;;5114891;28;20035;-67
2021/04/26 04:46:27;;;;;;;6.30;2.67;;;9.60;39.10;;;;;;5114511;28;20024;-67
2021/04/26 04:48:53;;;;;;;12.35;3.20;;;9.50;39.10;;;;;;5114766;28;20019;-66
2021/04/26 04:51:20;;;;;;;5.90;2.33;;;9.50;39.40;;;;;;5114534;28;20078;-67
2021/04/26 04:53:45;;;;;;;10.07;3.00;;;9.50;39.40;;;;;;5140817;27;20031;-67
2021/04/26 04:56:11;;;;;;;6.85;3.08;;;9.60;39.50;;;;;;5155856;27;20101;-66
2021/04/26 04:58:37;;;;;;;9.10;3.20;;;9.60;39.50;;;;;;5154341;27;20038;-66
2021/04/26 05:01:03;;;;;;;8.38;2.97;;;9.60;39.50;;;;;;5155723;27;20023;-66
2021/04/26 05:03:29;;;;;;;4.90;2.67;;;9.70;39.80;;;;;;5151973;27;21379;-66
2021/04/26 05:05:55;;;;;;;9.15;3.15;;;9.70;39.50;;;;;;5134607;27;20029;-67
2021/04/26 05:08:20;;;;;;;7.53;3.22;;;9.80;39.60;;;;;;5134917;27;20093;-66
2021/04/26 05:10:46;;;;;;;10.68;3.22;;;9.90;40.00;;;;;;5134771;27;20027;-66
2021/04/26 05:13:12;;;;;;;5.30;2.60;;;9.90;40.10;;;;;;5138735;27;20023;-66
2021/04/26 05:15:38;;;;;;;9.52;3.25;;;10.00;39.40;;;;;;5135959;27;20019;-66
2021/04/26 05:18:06;;;;;;;10.52;2.80;;;10.00;39.30;;;;;;5134442;27;20023;-66
2021/04/26 05:20:32;;;;;;;7.60;3.00;;;10.10;39.20;;;;;;5134453;27;20050;-66
2021/04/26 05:22:57;;;;;;;6.75;2.70;;;10.10;39.10;;;;;;5133308;27;20057;-66
2021/04/26 05:25:23;;;;;;;7.43;2.85;;;10.20;39.10;;;;;;5134555;27;20019;-66
2021/04/26 05:27:49;;;;;;;13.15;4.25;;;10.20;39.00;;;;;;5133492;27;20091;-66
2021/04/26 05:30:15;;;;;;;9.68;4.55;;;10.30;39.00;;;;;;5134542;27;20026;-67
2021/04/26 05:32:41;;;;;;;9.05;4.28;;;10.40;39.00;;;;;;5134440;27;20024;-66
2021/04/26 05:35:08;;;;;;;23.00;7.32;;;10.50;38.80;;;;;;5132772;27;20035;-67
2021/04/26 05:37:35;;;;;;;18.33;7.93;;;10.50;38.70;;;;;;5133956;27;20031;-68
2021/04/26 05:40:01;;;;;;;13.55;5.82;;;10.60;38.70;;;;;;5129780;27;20020;-67
2021/04/26 05:42:26;;;;;;;18.17;5.70;;;10.70;38.60;;;;;;5113389;28;20043;-67
2021/04/26 05:44:52;;;;;;;8.65;4.28;;;10.70;38.50;;;;;;5129043;27;20019;-67
2021/04/26 05:47:18;;;;;;;13.13;3.92;;;10.80;38.30;;;;;;5129569;27;20028;-66
2021/04/26 05:49:44;;;;;;;13.10;4.93;;;10.90;38.20;;;;;;5113541;28;20043;-66
2021/04/26 05:52:09;;;;;;;13.20;3.95;;;10.90;38.20;;;;;;5113353;28;20051;-67
2021/04/26 05:54:35;;;;;;;16.17;4.65;;;11.00;37.80;;;;;;5113386;28;20023;-67
2021/04/26 05:57:01;;;;;;;8.63;4.00;;;11.10;38.00;;;;;;5112793;28;20024;-66
2021/04/26 05:59:27;;;;;;;15.52;6.57;;;11.10;37.90;;;;;;5113376;28;20027;-66
2021/04/26 06:01:53;;;;;;;11.35;3.90;;;11.20;37.90;;;;;;5113288;28;20058;-66
2021/04/26 06:04:18;;;;;;;11.40;4.80;;;11.30;37.90;;;;;;5125358;27;20027;-66
2021/04/26 06:06:44;;;;;;;13.52;5.45;;;11.40;37.70;;;;;;5133749;27;20037;-66
2021/04/26 06:09:10;;;;;;;10.95;5.20;;;11.40;37.70;;;;;;5133789;27;20098;-67
2021/04/26 06:11:36;;;;;;;10.90;4.13;;;11.50;37.60;;;;;;5132265;28;20019;-66
2021/04/26 06:14:01;;;;;;;22.83;5.10;;;11.60;37.30;;;;;;5138413;27;20642;-66
2021/04/26 06:16:27;;;;;;;9.05;4.78;;;11.70;37.20;;;;;;5143268;27;20422;-66
2021/04/26 06:18:53;;;;;;;11.55;4.30;;;11.70;37.10;;;;;;5154487;27;20030;-67
2021/04/26 06:21:19;;;;;;;12.85;5.45;;;11.80;36.60;;;;;;5154677;27;20094;-67
2021/04/26 06:23:44;;;;;;;7.68;3.72;;;11.80;36.30;;;;;;5154451;27;20015;-66
2021/04/26 06:26:10;;;;;;;14.23;3.80;;;11.90;36.20;;;;;;5152649;27;20033;-66
2021/04/26 06:28:36;;;;;;;6.03;3.70;;;11.90;36.00;;;;;;5154489;27;20022;-67
2021/04/26 06:31:02;;;;;;;9.27;4.13;;;12.00;36.00;;;;;;5154518;27;20054;-66
2021/04/26 06:33:28;;;;;;;14.35;3.63;;;12.00;35.70;;;;;;5148984;27;20027;-67
2021/04/26 06:35:54;;;;;;;8.13;3.38;;;12.00;35.20;;;;;;5133629;27;20030;-67
2021/04/26 06:38:21;;;;;;;9.82;4.15;;;12.10;35.10;;;;;;5131652;27;20495;-67
2021/04/26 06:40:48;;;;;;;6.25;3.60;;;12.10;35.10;;;;;;5120094;28;20403;-67
2021/04/26 06:43:15;;;;;;;9.75;4.85;;;12.20;35.40;;;;;;5132192;28;20403;-67
2021/04/26 06:45:42;;;;;;;8.77;4.85;;;12.30;35.00;;;;;;5132358;28;20106;-66
2021/04/26 06:48:09;;;;;;;11.27;4.82;;;12.40;35.00;;;;;;5133615;27;20054;-67
2021/04/26 06:50:35;;;;;;;13.32;3.63;;;12.50;35.00;;;;;;5133417;27;20027;-67
2021/04/26 06:53:01;;;;;;;12.98;5.07;;;12.60;35.00;;;;;;5133515;27;20042;-67
2021/04/26 06:55:28;;;;;;;5.95;3.83;;;12.70;34.90;;;;;;5133226;27;20031;-66
2021/04/26 06:57:54;;;;;;;11.82;5.78;;;12.70;34.40;;;;;;5133431;27;20038;-67
2021/04/26 07:00:21;;;;;;;8.75;4.63;;;12.80;34.40;;;;;;5147627;27;20083;-67
2021/04/26 07:02:49;;;;;;;7.80;4.22;;;12.90;34.30;;;;;;5134456;27;20037;-67
2021/04/26 07:05:15;;;;;;;18.95;4.20;;;13.00;34.00;;;;;;5133433;27;20026;-67
2021/04/26 07:07:41;;;;;;;8.50;4.72;;;13.10;33.80;;;;;;5133891;27;20027;-67
2021/04/26 07:10:08;;;;;;;9.77;3.97;;;13.10;33.90;;;;;;5137244;27;20019;-66
2021/04/26 07:12:34;;;;;;;19.80;7.13;;;13.20;33.80;;;;;;5137082;27;20107;-66
2021/04/26 07:15:00;;;;;;;6.50;3.53;;;13.30;33.80;;;;;;5123287;27;20031;-66
2021/04/26 07:17:26;;;;;;;6.03;3.28;;;13.50;33.20;;;;;;5115672;27;20042;-66
2021/04/26 07:19:52;;;;;;;8.40;3.58;;;13.60;33.10;;;;;;5129287;27;20433;-66
2021/04/26 07:22:18;;;;;;;8.88;3.60;;;13.70;33.30;;;;;;5135647;27;20038;-66
2021/04/26 07:24:44;;;;;;;7.32;3.72;;;13.80;32.50;;;;;;5135125;27;20012;-66
2021/04/26 07:27:11;;;;;;;10.85;3.95;;;13.90;32.50;;;;;;5135814;27;20388;-66
2021/04/26 07:29:37;;;;;;;7.75;3.42;;;14.10;32.30;;;;;;5142334;27;20038;-68
2021/04/26 07:32:03;;;;;;;5.65;2.83;;;14.20;32.10;;;;;;5156492;27;20487;-69
2021/04/26 07:34:29;;;;;;;9.52;4.07;;;14.30;32.00;;;;;;5156239;27;20471;-67
2021/04/26 07:36:57;;;;;;;7.15;4.05;;;14.40;32.10;;;;;;5145875;27;20031;-67
2021/04/26 07:39:23;;;;;;;8.30;3.28;;;14.60;32.00;;;;;;5136127;27;20038;-67
2021/04/26 07:41:49;;;;;;;13.35;4.90;;;14.70;31.30;;;;;;5136292;27;20396;-66
2021/04/26 07:44:14;;;;;;;7.80;3.75;;;14.80;31.30;;;;;;5121160;27;20028;-67
2021/04/26 07:46:40;;;;;;;7.13;3.40;;;14.90;31.20;;;;;;5114202;28;20030;-69
2021/04/26 07:49:06;;;;;;;12.85;4.10;;;15.10;30.70;;;;;;5115503;28;20024;-66
2021/04/26 07:51:32;;;;;;;4.72;3.30;;;15.20;31.00;;;;;;5115388;28;20056;-67
2021/04/26 07:53:58;;;;;;;5.88;2.85;;;15.30;30.30;;;;;;5117601;27;20024;-67
2021/04/26 07:56:23;;;;;;;5.88;2.78;;;15.40;30.00;;;;;;5136391;27;20042;-67
2021/04/26 07:58:49;;;;;;;9.50;4.70;;;15.50;29.70;;;;;;5146753;27;20026;-66
2021/04/26 08:01:15;;;;;;;8.40;4.22;;;15.60;29.80;;;;;;5139039;27;20436;-67
2021/04/26 08:03:41;;;;;;;6.13;3.55;;;15.60;29.70;;;;;;5143650;27;20019;-66
2021/04/26 08:06:07;;;;;;;8.50;3.78;;;15.70;29.70;;;;;;5125887;27;20035;-67
2021/04/26 08:08:33;;;;;;;10.25;3.97;;;15.80;29.80;;;;;;5139827;27;20015;-67
2021/04/26 08:10:59;;;;;;;8.18;4.88;;;15.90;29.70;;;;;;5136063;27;20026;-67
2021/04/26 08:13:28;;;;;;;5.53;2.85;;;16.00;29.60;;;;;;5135489;27;20027;-68
2021/04/26 08:15:57;;;;;;;10.95;3.35;;;16.10;29.10;;;;;;5135849;27;20019;-69
2021/04/26 08:18:23;;;;;;;6.47;3.35;;;16.00;29.00;;;;;;5144264;27;20027;-67
2021/04/26 08:20:49;;;;;;;15.45;4.18;;;16.00;29.00;;;;;;5134518;27;20031;-67
2021/04/26 08:23:15;;;;;;;7.10;3.75;;;16.00;28.80;;;;;;5136351;27;20038;-67
2021/04/26 08:25:40;;;;;;;5.70;3.50;;;15.90;28.60;;;;;;5139661;27;20031;-67
2021/04/26 08:28:07;;;;;;;7.18;3.95;;;15.70;28.90;;;;;;5135459;27;20095;-67
2021/04/26 08:30:33;;;;;;;11.40;4.15;;;15.60;29.10;;;;;;5135536;27;20024;-67
2021/04/26 08:32:59;;;;;;;9.88;3.50;;;15.60;29.40;;;;;;5135663;27;20034;-67
2021/04/26 08:35:25;;;;;;;6.85;3.05;;;15.50;29.40;;;;;;5135480;27;20023;-68
2021/04/26 08:37:51;;;;;;;8.68;3.53;;;15.50;29.20;;;;;;5117009;27;20031;-67
2021/04/26 08:40:17;;;;;;;9.50;3.70;;;15.40;29.40;;;;;;5114231;28;20540;-66
2021/04/26 08:42:43;;;;;;;10.35;3.70;;;15.40;29.70;;;;;;5113749;28;20051;-66
2021/04/26 08:45:10;;;;;;;7.75;3.50;;;15.40;29.50;;;;;;5114456;28;20051;-65
2021/04/26 08:47:40;;;;;;;5.63;3.53;;;15.40;29.50;;;;;;5114784;28;20024;-65
2021/04/26 08:50:07;;;;;;;8.07;3.20;;;15.40;29.10;;;;;;5114737;28;20405;-65
2021/04/26 08:52:33;;;;;;;6.18;2.58;;;15.40;29.20;;;;;;5116067;27;20039;-65
2021/04/26 08:54:59;;;;;;;5.60;2.40;;;15.40;29.20;;;;;;5133672;27;20027;-66
2021/04/26 08:57:25;;;;;;;7.20;4.18;;;15.40;29.50;;;;;;5133652;27;20023;-65
2021/04/26 08:59:51;;;;;;;5.45;3.20;;;15.40;29.20;;;;;;5133898;27;20432;-65
2021/04/26 09:02:17;;;;;;;6.35;3.17;;;15.40;28.90;;;;;;5130480;27;20135;-65
2021/04/26 09:04:49;;;;;;;8.35;3.95;;;15.50;29.20;;;;;;5135059;27;20050;-65
2021/04/26 09:07:16;;;;;;;8.95;3.80;;;15.50;29.10;;;;;;5131548;27;20494;-65
2021/04/26 09:09:50;;;;;;;6.50;3.00;;;15.60;28.90;;;;;;5133721;27;20027;-65
2021/04/26 09:12:21;;;;;;;4.65;3.05;;;15.60;28.00;;;;;;5135036;27;20061;-66
2021/04/26 09:14:52;;;;;;;5.82;3.00;;;15.60;28.20;;;;;;5134087;27;20031;-66
2021/04/26 09:17:32;;;;;;;9.25;2.88;;;15.60;26.90;;;;;;5131766;27;20023;-66
2021/04/26 09:20:15;;;;;;;13.48;3.72;;;15.60;27.20;;;;;;5134070;27;20055;-66
2021/04/26 09:22:50;;;;;;;8.18;3.75;;;15.70;27.70;;;;;;5134699;27;20042;-66
2021/04/26 09:25:41;;;;;;;8.20;2.95;;;15.70;27.50;;;;;;5134389;27;20068;-65
2021/04/26 09:28:20;;;;;;;8.20;3.40;;;15.80;27.70;;;;;;5134401;27;20023;-66
2021/04/26 09:30:55;;;;;;;11.18;2.90;;;15.90;27.50;;;;;;5134321;27;20075;-66
2021/04/26 09:33:21;;;;;;;;;;;16.00;27.70;;;;;;5133142;27;20019;-66
2021/04/26 09:36:01;;;;;;;8.43;2.55;;;16.10;28.50;;;;;;5134449;27;19922;-66
2021/04/26 09:38:39;;;;;;;9.80;3.35;;;16.20;27.70;;;;;;5134468;27;20503;-66
2021/04/26 09:41:28;;;;;;;5.53;2.55;;;16.20;27.50;;;;;;5134384;27;20023;-65
2021/04/26 09:44:00;;;;;;;4.00;2.33;;;16.30;27.40;;;;;;5124411;27;20023;-73
2021/04/26 09:46:41;;;;;;;5.32;2.70;;;16.40;27.40;;;;;;5119361;27;20077;-68
2021/04/26 09:49:16;;;;;;;5.85;2.78;;;16.50;27.40;;;;;;5132642;27;20031;-73
2021/04/26 09:51:46;;;;;;;7.68;2.80;;;16.60;27.40;;;;;;5121484;27;20063;-74
2021/04/26 09:54:12;;;;;;;9.75;2.58;;;16.60;27.20;;;;;;5114572;27;20024;-67
2021/04/26 09:56:40;;;;;;;6.30;2.50;;;16.60;27.30;;;;;;5118770;27;20080;-73
2021/04/26 09:59:07;;;;;;;9.15;3.30;;;16.70;27.60;;;;;;5129756;27;20533;-73
2021/04/26 10:01:33;;;;;;;17.10;3.25;;;16.80;27.10;;;;;;5127802;27;20477;-71
2021/04/26 10:04:01;;;;;;;13.55;3.85;;;16.90;26.90;;;;;;5129825;27;20051;-70
2021/04/26 10:06:27;;;;;;;5.65;2.70;;;16.90;26.90;;;;;;5118549;27;20143;-72
2021/04/26 10:08:55;;;;;;;8.68;4.63;;;17.00;26.40;;;;;;5129626;27;20027;-74
2021/04/26 10:11:23;;;;;;;11.00;5.03;;;17.00;26.40;;;;;;5123155;27;20019;-74
2021/04/26 10:13:58;;;;;;;10.02;5.75;;;17.10;26.30;;;;;;5112040;28;20042;-70
2021/04/26 10:16:54;;;;;;;6.47;3.03;;;17.10;26.20;;;;;;5125126;28;20069;-70
2021/04/26 10:19:29;;;;;;;4.95;2.70;;;17.20;25.90;;;;;;5103047;28;20114;-73
2021/04/26 10:21:57;;;;;;;6.35;3.25;;;17.30;25.80;;;;;;5128986;28;20375;-72
2021/04/26 10:24:25;;;;;;;8.25;3.15;;;17.30;25.40;;;;;;5131422;28;20028;-69
2021/04/26 10:26:58;;;;;;;5.10;2.70;;;17.30;25.00;;;;;;5128650;28;20384;-69
2021/04/26 10:29:34;;;;;;;6.60;3.20;;;17.40;25.20;;;;;;5121596;28;20024;-67
2021/04/26 10:32:05;;;;;;;5.70;2.85;;;17.40;25.40;;;;;;5132707;27;20028;-66
2021/04/26 10:34:43;;;;;;;9.68;2.30;;;17.50;26.00;;;;;;5130567;27;20031;-68
2021/04/26 10:37:15;;;;;;;8.20;2.05;;;17.50;25.40;;;;;;5112271;28;20059;-71
2021/04/26 10:40:05;;;;;;;6.40;2.08;;;17.50;23.10;;;;;;5112095;28;20111;-75
2021/04/26 10:43:04;;;;;;;4.22;2.28;;;17.50;23.40;;;;;;5131715;27;20023;-65
2021/04/26 10:45:30;;;;;;;5.70;2.47;;;17.60;22.90;;;;;;5124075;27;20051;-69
2021/04/26 10:48:04;;;;;;;5.40;2.47;;;17.60;23.20;;;;;;5116309;27;20084;-68
2021/04/26 10:50:33;;;;;;;7.57;2.13;;;17.60;23.50;;;;;;5121570;27;20015;-66
2021/04/26 10:52:59;;;;;;;5.43;2.13;;;17.70;23.30;;;;;;5136413;27;20126;-73
2021/04/26 10:55:25;;;;;;;3.60;2.08;;;17.70;23.50;;;;;;5130693;27;20034;-72
2021/04/26 10:58:23;;;;;;;4.13;2.22;;;17.70;23.60;;;;;;5135342;27;20027;-69
2021/04/26 11:00:49;;;;;;;4.22;2.20;;;17.70;23.90;;;;;;5127967;27;20066;-77
2021/04/26 11:03:18;;;;;;;5.00;2.45;;;17.80;23.70;;;;;;5132384;27;20095;-74
2021/04/26 11:05:45;;;;;;;6.60;2.10;;;17.80;22.20;;;;;;5132699;27;20445;-69
2021/04/26 11:08:31;;;;;;;3.28;1.88;;;17.70;22.60;;;;;;5115613;28;20016;-69
2021/04/26 11:11:08;;;;;;;4.68;2.58;;;17.70;21.40;;;;;;5115541;28;20035;-70
2021/04/26 11:13:46;;;;;;;3.75;2.25;;;17.80;21.50;;;;;;5115385;28;20037;-69
2021/04/26 11:16:16;;;;;;;5.40;2.75;;;17.80;21.80;;;;;;5126838;27;20027;-72
2021/04/26 11:19:00;;;;;;;7.53;2.40;;;17.70;21.80;;;;;;5135397;27;20022;-68
2021/04/26 11:21:44;;;;;;;5.50;2.33;;;17.70;22.50;;;;;;5127891;27;20020;-69
2021/04/26 11:24:13;;;;;;;4.43;2.00;;;17.70;22.50;;;;;;5118551;27;20084;-64
2021/04/26 11:26:39;;;;;;;5.97;2.40;;;17.80;22.40;;;;;;5133375;27;20372;-66
2021/04/26 11:29:11;;;;;;;4.13;2.30;;;17.80;22.30;;;;;;5135509;27;20015;-64
2021/04/26 11:31:45;;;;;;;4.32;1.85;;;17.80;22.20;;;;;;5128474;27;20024;-67
2021/04/26 11:34:16;;;;;;;7.82;3.00;;;17.80;21.80;;;;;;5115835;27;20027;-68
2021/04/26 11:37:00;;;;;;;3.25;2.15;;;17.80;22.40;;;;;;5134298;27;20091;-68
2021/04/26 11:39:31;;;;;;;4.83;2.00;;;17.80;22.90;;;;;;5133777;27;20426;-69
2021/04/26 11:41:58;;;;;;;4.78;2.47;;;17.90;23.60;;;;;;5126966;27;20364;-69
2021/04/26 11:44:35;;;;;;;5.63;2.55;;;17.90;23.20;;;;;;5129089;27;20593;-68
2021/04/26 11:47:11;;;;;;;3.97;2.20;;;18.00;23.40;;;;;;5125879;27;20042;-73
2021/04/26 11:49:40;;;;;;;3.63;2.05;;;18.10;23.40;;;;;;5118801;27;20031;-72
2021/04/26 11:52:17;;;;;;;2.92;2.08;;;18.20;22.80;;;;;;5119418;27;20044;-63
2021/04/26 11:54:48;;;;;;;4.75;2.45;;;18.20;22.90;;;;;;5130238;27;20051;-70
2021/04/26 11:57:22;;;;;;;5.20;1.95;;;18.30;22.80;;;;;;5116459;27;20135;-70
2021/04/26 11:59:53;;;;;;;4.70;2.13;;;18.30;22.40;;;;;;5114973;28;20084;-71
2021/04/26 12:02:30;;;;;;;2.63;1.60;;;18.40;22.70;;;;;;5114571;28;20384;-71
2021/04/26 12:05:00;;;;;;;5.22;2.40;;;18.40;22.40;;;;;;5114947;27;20020;-70
2021/04/26 12:07:26;;;;;;;3.92;2.45;;;18.50;22.40;;;;;;5134269;27;20030;-72
2021/04/26 12:10:00;;;;;;;4.85;2.40;;;18.50;22.20;;;;;;5133647;27;20022;-69
2021/04/26 12:12:28;;;;;;;6.03;2.88;;;18.60;22.40;;;;;;5133303;27;20038;-69
2021/04/26 12:14:56;;;;;;;5.53;2.42;;;18.60;22.30;;;;;;5134537;27;20019;-69
2021/04/26 12:17:27;;;;;;;4.07;2.10;;;18.70;21.00;;;;;;5133120;27;20415;-68
2021/04/26 12:19:54;;;;;;;2.67;1.70;;;18.70;21.30;;;;;;5123147;27;20031;-69
2021/04/26 12:22:21;;;;;;;5.35;2.22;;;18.70;21.00;;;;;;5121232;27;20036;-69
2021/04/26 12:24:54;;;;;;;6.28;2.42;;;18.70;21.00;;;;;;5136821;27;20061;-71
2021/04/26 12:27:24;;;;;;;5.07;1.88;;;18.70;20.80;;;;;;5133393;27;20484;-75
2021/04/26 12:29:50;;;;;;;4.95;2.10;;;18.70;21.20;;;;;;5133571;27;20018;-68
2021/04/26 12:32:26;;;;;;;3.97;1.90;;;18.70;21.50;;;;;;5124938;27;20027;-69
2021/04/26 12:34:56;;;;;;;4.80;2.40;;;18.80;21.60;;;;;;5114245;27;20103;-75
2021/04/26 12:37:30;;;;;;;9.73;2.75;;;18.80;22.00;;;;;;5114098;28;20055;-74
2021/04/26 12:40:15;;;;;;;2.80;2.15;;;18.90;22.00;;;;;;5130974;27;20055;-71
2021/04/26 12:42:43;;;;;;;5.18;2.72;;;19.00;21.80;;;;;;5126236;27;20424;-76
2021/04/26 12:45:13;;;;;;;8.05;2.95;;;19.10;21.30;;;;;;5134538;27;20024;-76
2021/04/26 12:48:06;;;;;;;2.60;1.92;;;19.10;20.70;;;;;;5128386;27;20023;-72
2021/04/26 12:50:54;;;;;;;4.63;2.40;;;19.10;21.10;;;;;;5128670;27;20054;-72
2021/04/26 12:53:26;;;;;;;5.05;2.83;;;19.20;21.20;;;;;;5133692;27;20047;-77
2021/04/26 12:55:55;;;;;;;6.35;2.15;;;19.30;21.60;;;;;;5134119;27;20028;-77